sensor_id;sensor_type;location;lat;lon;timestamp;P1;durP1;ratioP1;P2;durP2;ratioP2
15061;SDS011;7630;50.306;8.566;2022-12-15T00:02:46;41.40;;;30.33;;
15061;SDS011;7630;50.306;8.566;2022-12-15T00:07:06;46.80;;;35.13;;
15061;SDS011;7630;50.306;8.566;2022-12-15T00:11:25;48.93;;;37.17;;
15061;SDS011;7630;50.306;8.566;2022-12-15T00:15:45;49.00;;;38.83;;
15061;SDS011;7630;50.306;8.566;2022-12-15T00:20:06;48.03;;;38.47;;
15061;SDS011;7630;50.306;8.566;2022-12-15T00:24:26;58.53;;;41.07;;
15061;SDS011;7630;50.306;8.566;2022-12-15T00:28:48;60.97;;;42.23;;
15061;SDS011;7630;50.306;8.566;2022-12-15T00:33:08;50.50;;;41.23;;
15061;SDS011;7630;50.306;8.566;2022-12-15T00:37:29;52.90;;;40.23;;
15061;SDS011;7630;50.306;8.566;2022-12-15T00:41:49;50.33;;;34.90;;
15061;SDS011;7630;50.306;8.566;2022-12-15T00:45:50;59.87;;;39.90;;
15061;SDS011;7630;50.306;8.566;2022-12-15T00:50:09;41.47;;;31.77;;
15061;SDS011;7630;50.306;8.566;2022-12-15T00:54:28;39.43;;;29.07;;
15061;SDS011;7630;50.306;8.566;2022-12-15T00:58:48;33.70;;;27.53;;
15061;SDS011;7630;50.306;8.566;2022-12-15T01:03:11;28.80;;;23.70;;
15061;SDS011;7630;50.306;8.566;2022-12-15T01:07:33;28.87;;;24.40;;
15061;SDS011;7630;50.306;8.566;2022-12-15T01:11:52;26.77;;;22.83;;
15061;SDS011;7630;50.306;8.566;2022-12-15T01:16:11;31.47;;;25.33;;
15061;SDS011;7630;50.306;8.566;2022-12-15T01:20:31;33.33;;;26.37;;
15061;SDS011;7630;50.306;8.566;2022-12-15T01:24:34;33.03;;;26.90;;
15061;SDS011;7630;50.306;8.566;2022-12-15T01:28:35;34.23;;;25.83;;
15061;SDS011;7630;50.306;8.566;2022-12-15T01:32:36;34.97;;;28.23;;
15061;SDS011;7630;50.306;8.566;2022-12-15T01:36:39;30.57;;;26.10;;
15061;SDS011;7630;50.306;8.566;2022-12-15T01:40:49;37.77;;;29.47;;
15061;SDS011;7630;50.306;8.566;2022-12-15T01:44:48;35.97;;;28.67;;
15061;SDS011;7630;50.306;8.566;2022-12-15T01:48:51;38.77;;;30.17;;
15061;SDS011;7630;50.306;8.566;2022-12-15T01:52:55;33.10;;;27.23;;
15061;SDS011;7630;50.306;8.566;2022-12-15T01:56:59;30.50;;;24.07;;
15061;SDS011;7630;50.306;8.566;2022-12-15T02:01:01;32.23;;;25.03;;
15061;SDS011;7630;50.306;8.566;2022-12-15T02:05:04;27.33;;;23.37;;
15061;SDS011;7630;50.306;8.566;2022-12-15T02:09:06;28.50;;;22.37;;
15061;SDS011;7630;50.306;8.566;2022-12-15T02:30:08;29.87;;;23.90;;
15061;SDS011;7630;50.306;8.566;2022-12-15T02:38:36;31.37;;;26.60;;
15061;SDS011;7630;50.306;8.566;2022-12-15T02:42:42;34.00;;;26.43;;
15061;SDS011;7630;50.306;8.566;2022-12-15T02:59:59;28.60;;;22.07;;
15061;SDS011;7630;50.306;8.566;2022-12-15T03:04:03;28.70;;;22.87;;
15061;SDS011;7630;50.306;8.566;2022-12-15T03:08:06;28.53;;;22.47;;
15061;SDS011;7630;50.306;8.566;2022-12-15T03:12:08;31.63;;;23.33;;
15061;SDS011;7630;50.306;8.566;2022-12-15T03:16:10;27.03;;;21.30;;
15061;SDS011;7630;50.306;8.566;2022-12-15T03:20:11;34.20;;;22.27;;
15061;SDS011;7630;50.306;8.566;2022-12-15T03:24:12;38.40;;;27.13;;
15061;SDS011;7630;50.306;8.566;2022-12-15T03:28:14;43.57;;;29.03;;
15061;SDS011;7630;50.306;8.566;2022-12-15T03:32:15;44.70;;;29.43;;
15061;SDS011;7630;50.306;8.566;2022-12-15T03:36:16;42.33;;;29.47;;
15061;SDS011;7630;50.306;8.566;2022-12-15T03:40:17;46.67;;;29.50;;
15061;SDS011;7630;50.306;8.566;2022-12-15T03:44:18;42.77;;;29.20;;
15061;SDS011;7630;50.306;8.566;2022-12-15T03:48:19;50.70;;;31.17;;
15061;SDS011;7630;50.306;8.566;2022-12-15T03:52:20;47.53;;;28.90;;
15061;SDS011;7630;50.306;8.566;2022-12-15T03:56:21;44.03;;;28.53;;
15061;SDS011;7630;50.306;8.566;2022-12-15T04:00:23;49.77;;;30.60;;
15061;SDS011;7630;50.306;8.566;2022-12-15T04:04:24;58.70;;;33.70;;
15061;SDS011;7630;50.306;8.566;2022-12-15T04:08:25;47.13;;;30.47;;
15061;SDS011;7630;50.306;8.566;2022-12-15T04:12:27;44.37;;;28.67;;
15061;SDS011;7630;50.306;8.566;2022-12-15T04:16:28;49.63;;;31.80;;
15061;SDS011;7630;50.306;8.566;2022-12-15T04:20:29;50.40;;;32.17;;
15061;SDS011;7630;50.306;8.566;2022-12-15T04:24:32;54.37;;;32.13;;
15061;SDS011;7630;50.306;8.566;2022-12-15T04:28:52;44.53;;;28.57;;
15061;SDS011;7630;50.306;8.566;2022-12-15T04:33:11;41.67;;;31.00;;
15061;SDS011;7630;50.306;8.566;2022-12-15T04:37:31;41.77;;;30.40;;
15061;SDS011;7630;50.306;8.566;2022-12-15T04:41:51;38.13;;;27.80;;
15061;SDS011;7630;50.306;8.566;2022-12-15T04:46:13;52.67;;;31.93;;
15061;SDS011;7630;50.306;8.566;2022-12-15T04:50:33;49.90;;;32.40;;
15061;SDS011;7630;50.306;8.566;2022-12-15T04:54:52;47.00;;;31.80;;
15061;SDS011;7630;50.306;8.566;2022-12-15T04:59:12;41.93;;;29.63;;
15061;SDS011;7630;50.306;8.566;2022-12-15T05:03:31;40.50;;;27.80;;
15061;SDS011;7630;50.306;8.566;2022-12-15T05:07:51;42.60;;;27.90;;
15061;SDS011;7630;50.306;8.566;2022-12-15T05:12:10;40.57;;;28.77;;
15061;SDS011;7630;50.306;8.566;2022-12-15T05:16:30;50.17;;;29.27;;
15061;SDS011;7630;50.306;8.566;2022-12-15T05:20:49;46.37;;;28.73;;
15061;SDS011;7630;50.306;8.566;2022-12-15T05:25:09;59.63;;;35.93;;
15061;SDS011;7630;50.306;8.566;2022-12-15T05:29:28;45.33;;;30.03;;
15061;SDS011;7630;50.306;8.566;2022-12-15T05:33:48;47.90;;;32.73;;
15061;SDS011;7630;50.306;8.566;2022-12-15T05:37:49;48.33;;;30.73;;
15061;SDS011;7630;50.306;8.566;2022-12-15T05:41:50;45.50;;;33.70;;
15061;SDS011;7630;50.306;8.566;2022-12-15T05:45:52;54.40;;;32.40;;
15061;SDS011;7630;50.306;8.566;2022-12-15T05:49:53;51.28;;;41.00;;
15061;SDS011;7630;50.306;8.566;2022-12-15T05:53:55;44.73;;;29.53;;
15061;SDS011;7630;50.306;8.566;2022-12-15T05:57:56;43.93;;;28.87;;
15061;SDS011;7630;50.306;8.566;2022-12-15T06:01:57;42.77;;;26.13;;
15061;SDS011;7630;50.306;8.566;2022-12-15T06:05:59;48.97;;;31.30;;
15061;SDS011;7630;50.306;8.566;2022-12-15T06:10:00;45.17;;;28.23;;
15061;SDS011;7630;50.306;8.566;2022-12-15T06:14:01;48.80;;;38.42;;
15061;SDS011;7630;50.306;8.566;2022-12-15T06:18:03;47.53;;;31.50;;
15061;SDS011;7630;50.306;8.566;2022-12-15T06:22:05;61.83;;;33.33;;
15061;SDS011;7630;50.306;8.566;2022-12-15T06:30:14;53.70;;;32.70;;
15061;SDS011;7630;50.306;8.566;2022-12-15T06:34:16;50.17;;;34.50;;
15061;SDS011;7630;50.306;8.566;2022-12-15T06:38:17;62.10;;;39.38;;
15061;SDS011;7630;50.306;8.566;2022-12-15T06:42:19;71.77;;;37.27;;
15061;SDS011;7630;50.306;8.566;2022-12-15T06:46:21;58.70;;;34.50;;
15061;SDS011;7630;50.306;8.566;2022-12-15T06:50:23;68.03;;;33.50;;
15061;SDS011;7630;50.306;8.566;2022-12-15T06:54:24;117.20;;;36.73;;
15061;SDS011;7630;50.306;8.566;2022-12-15T06:58:25;84.30;;;37.57;;
15061;SDS011;7630;50.306;8.566;2022-12-15T07:02:27;121.83;;;39.60;;
15061;SDS011;7630;50.306;8.566;2022-12-15T07:06:36;57.63;;;37.23;;
15061;SDS011;7630;50.306;8.566;2022-12-15T07:10:38;98.60;;;39.87;;
15061;SDS011;7630;50.306;8.566;2022-12-15T07:14:40;91.07;;;42.27;;
15061;SDS011;7630;50.306;8.566;2022-12-15T07:18:41;61.73;;;37.17;;
15061;SDS011;7630;50.306;8.566;2022-12-15T07:22:42;63.07;;;32.13;;
15061;SDS011;7630;50.306;8.566;2022-12-15T07:26:43;57.77;;;33.07;;
15061;SDS011;7630;50.306;8.566;2022-12-15T07:30:47;54.63;;;32.87;;
15061;SDS011;7630;50.306;8.566;2022-12-15T07:34:48;66.80;;;34.47;;
15061;SDS011;7630;50.306;8.566;2022-12-15T07:38:50;56.53;;;32.40;;
15061;SDS011;7630;50.306;8.566;2022-12-15T07:42:52;48.07;;;30.97;;
15061;SDS011;7630;50.306;8.566;2022-12-15T07:46:54;56.23;;;32.60;;
15061;SDS011;7630;50.306;8.566;2022-12-15T07:50:55;63.07;;;32.27;;
15061;SDS011;7630;50.306;8.566;2022-12-15T07:55:01;57.97;;;30.90;;
15061;SDS011;7630;50.306;8.566;2022-12-15T07:59:03;57.17;;;35.27;;
15061;SDS011;7630;50.306;8.566;2022-12-15T08:03:05;68.43;;;34.77;;
15061;SDS011;7630;50.306;8.566;2022-12-15T08:07:08;69.10;;;32.37;;
15061;SDS011;7630;50.306;8.566;2022-12-15T08:11:12;65.07;;;35.23;;
15061;SDS011;7630;50.306;8.566;2022-12-15T08:15:14;56.97;;;33.67;;
15061;SDS011;7630;50.306;8.566;2022-12-15T08:19:15;72.57;;;36.27;;
15061;SDS011;7630;50.306;8.566;2022-12-15T08:23:17;67.67;;;37.83;;
15061;SDS011;7630;50.306;8.566;2022-12-15T08:27:18;65.03;;;30.90;;
15061;SDS011;7630;50.306;8.566;2022-12-15T08:31:21;111.63;;;30.03;;
15061;SDS011;7630;50.306;8.566;2022-12-15T08:35:23;62.77;;;28.23;;
15061;SDS011;7630;50.306;8.566;2022-12-15T08:39:26;56.43;;;32.50;;
15061;SDS011;7630;50.306;8.566;2022-12-15T08:43:28;47.20;;;25.67;;
15061;SDS011;7630;50.306;8.566;2022-12-15T08:47:29;47.30;;;29.20;;
15061;SDS011;7630;50.306;8.566;2022-12-15T08:51:31;51.97;;;30.33;;
15061;SDS011;7630;50.306;8.566;2022-12-15T08:55:33;44.83;;;30.30;;
15061;SDS011;7630;50.306;8.566;2022-12-15T08:59:34;51.13;;;32.83;;
15061;SDS011;7630;50.306;8.566;2022-12-15T09:03:36;50.40;;;29.80;;
15061;SDS011;7630;50.306;8.566;2022-12-15T09:07:37;50.33;;;30.80;;
15061;SDS011;7630;50.306;8.566;2022-12-15T09:11:38;51.83;;;30.97;;
15061;SDS011;7630;50.306;8.566;2022-12-15T09:15:39;75.80;;;31.17;;
15061;SDS011;7630;50.306;8.566;2022-12-15T09:19:44;84.43;;;29.07;;
15061;SDS011;7630;50.306;8.566;2022-12-15T09:23:48;43.97;;;27.30;;
15061;SDS011;7630;50.306;8.566;2022-12-15T09:27:51;56.50;;;30.23;;
15061;SDS011;7630;50.306;8.566;2022-12-15T09:31:52;54.90;;;33.57;;
15061;SDS011;7630;50.306;8.566;2022-12-15T09:35:53;48.77;;;29.93;;
15061;SDS011;7630;50.306;8.566;2022-12-15T09:39:54;55.30;;;30.93;;
15061;SDS011;7630;50.306;8.566;2022-12-15T09:48:09;46.03;;;30.10;;
15061;SDS011;7630;50.306;8.566;2022-12-15T09:52:12;47.23;;;28.63;;
15061;SDS011;7630;50.306;8.566;2022-12-15T09:56:20;50.03;;;27.03;;
15061;SDS011;7630;50.306;8.566;2022-12-15T10:00:39;46.17;;;24.70;;
15061;SDS011;7630;50.306;8.566;2022-12-15T10:09:00;46.47;;;26.00;;
15061;SDS011;7630;50.306;8.566;2022-12-15T10:13:06;42.83;;;24.80;;
15061;SDS011;7630;50.306;8.566;2022-12-15T10:17:25;39.17;;;26.83;;
15061;SDS011;7630;50.306;8.566;2022-12-15T10:21:29;46.47;;;26.57;;
15061;SDS011;7630;50.306;8.566;2022-12-15T10:25:31;50.27;;;27.43;;
15061;SDS011;7630;50.306;8.566;2022-12-15T10:29:41;43.00;;;29.03;;
15061;SDS011;7630;50.306;8.566;2022-12-15T10:33:55;39.57;;;25.83;;
15061;SDS011;7630;50.306;8.566;2022-12-15T10:37:58;45.90;;;27.97;;
15061;SDS011;7630;50.306;8.566;2022-12-15T10:42:13;44.73;;;25.97;;
15061;SDS011;7630;50.306;8.566;2022-12-15T10:50:26;47.57;;;25.10;;
15061;SDS011;7630;50.306;8.566;2022-12-15T10:54:42;34.10;;;23.33;;
15061;SDS011;7630;50.306;8.566;2022-12-15T10:58:49;40.10;;;24.70;;
15061;SDS011;7630;50.306;8.566;2022-12-15T11:02:52;36.57;;;23.70;;
15061;SDS011;7630;50.306;8.566;2022-12-15T11:06:55;33.80;;;22.93;;
15061;SDS011;7630;50.306;8.566;2022-12-15T11:11:00;28.50;;;22.67;;
15061;SDS011;7630;50.306;8.566;2022-12-15T11:27:56;34.77;;;25.10;;
15061;SDS011;7630;50.306;8.566;2022-12-15T11:40:50;35.23;;;21.37;;
15061;SDS011;7630;50.306;8.566;2022-12-15T11:44:59;35.20;;;24.97;;
15061;SDS011;7630;50.306;8.566;2022-12-15T11:53:46;32.17;;;21.13;;
15061;SDS011;7630;50.306;8.566;2022-12-15T11:57:56;29.73;;;21.40;;
15061;SDS011;7630;50.306;8.566;2022-12-15T12:07:13;30.37;;;19.83;;
15061;SDS011;7630;50.306;8.566;2022-12-15T12:15:02;26.93;;;19.83;;
15061;SDS011;7630;50.306;8.566;2022-12-15T12:19:22;36.53;;;22.47;;
15061;SDS011;7630;50.306;8.566;2022-12-15T12:23:35;25.67;;;21.23;;
15061;SDS011;7630;50.306;8.566;2022-12-15T12:27:46;35.33;;;25.50;;
15061;SDS011;7630;50.306;8.566;2022-12-15T12:31:55;31.83;;;24.63;;
15061;SDS011;7630;50.306;8.566;2022-12-15T12:36:05;32.80;;;23.90;;
15061;SDS011;7630;50.306;8.566;2022-12-15T12:44:23;35.23;;;21.07;;
15061;SDS011;7630;50.306;8.566;2022-12-15T12:52:49;33.07;;;22.53;;
15061;SDS011;7630;50.306;8.566;2022-12-15T12:56:55;25.17;;;19.87;;
15061;SDS011;7630;50.306;8.566;2022-12-15T13:01:04;35.13;;;21.77;;
15061;SDS011;7630;50.306;8.566;2022-12-15T13:09:38;25.43;;;19.73;;
15061;SDS011;7630;50.306;8.566;2022-12-15T13:13:42;30.60;;;22.03;;
15061;SDS011;7630;50.306;8.566;2022-12-15T13:17:49;53.57;;;23.33;;
15061;SDS011;7630;50.306;8.566;2022-12-15T13:21:53;46.73;;;22.97;;
15061;SDS011;7630;50.306;8.566;2022-12-15T13:34:11;49.73;;;24.30;;
15061;SDS011;7630;50.306;8.566;2022-12-15T13:38:18;39.87;;;24.07;;
15061;SDS011;7630;50.306;8.566;2022-12-15T13:42:25;42.77;;;22.90;;
15061;SDS011;7630;50.306;8.566;2022-12-15T13:46:30;40.67;;;22.30;;
15061;SDS011;7630;50.306;8.566;2022-12-15T13:50:38;41.67;;;22.47;;
15061;SDS011;7630;50.306;8.566;2022-12-15T13:54:41;42.87;;;25.83;;
15061;SDS011;7630;50.306;8.566;2022-12-15T13:58:46;65.17;;;27.87;;
15061;SDS011;7630;50.306;8.566;2022-12-15T14:02:51;94.73;;;28.23;;
15061;SDS011;7630;50.306;8.566;2022-12-15T14:07:06;52.47;;;25.10;;
15061;SDS011;7630;50.306;8.566;2022-12-15T14:11:13;47.07;;;25.57;;
15061;SDS011;7630;50.306;8.566;2022-12-15T14:15:15;42.83;;;28.13;;
15061;SDS011;7630;50.306;8.566;2022-12-15T14:19:18;42.73;;;28.73;;
15061;SDS011;7630;50.306;8.566;2022-12-15T14:23:20;38.43;;;23.80;;
15061;SDS011;7630;50.306;8.566;2022-12-15T14:27:28;40.30;;;25.20;;
15061;SDS011;7630;50.306;8.566;2022-12-15T14:31:28;58.77;;;33.57;;
15061;SDS011;7630;50.306;8.566;2022-12-15T14:35:32;58.13;;;30.77;;
15061;SDS011;7630;50.306;8.566;2022-12-15T14:39:39;52.30;;;31.23;;
15061;SDS011;7630;50.306;8.566;2022-12-15T14:43:49;68.80;;;29.57;;
15061;SDS011;7630;50.306;8.566;2022-12-15T14:47:55;62.50;;;27.40;;
15061;SDS011;7630;50.306;8.566;2022-12-15T14:52:01;56.30;;;26.13;;
15061;SDS011;7630;50.306;8.566;2022-12-15T14:56:11;49.83;;;29.80;;
15061;SDS011;7630;50.306;8.566;2022-12-15T15:00:31;90.10;;;65.00;;
15061;SDS011;7630;50.306;8.566;2022-12-15T15:04:32;94.67;;;35.53;;
15061;SDS011;7630;50.306;8.566;2022-12-15T15:08:34;77.30;;;32.17;;
15061;SDS011;7630;50.306;8.566;2022-12-15T15:12:44;71.07;;;33.03;;
15061;SDS011;7630;50.306;8.566;2022-12-15T15:16:57;73.43;;;34.77;;
15061;SDS011;7630;50.306;8.566;2022-12-15T15:21:01;65.07;;;38.00;;
15061;SDS011;7630;50.306;8.566;2022-12-15T15:25:28;77.83;;;36.53;;
15061;SDS011;7630;50.306;8.566;2022-12-15T15:29:38;63.97;;;36.83;;
15061;SDS011;7630;50.306;8.566;2022-12-15T15:33:41;71.40;;;41.50;;
15061;SDS011;7630;50.306;8.566;2022-12-15T15:37:43;63.43;;;36.87;;
15061;SDS011;7630;50.306;8.566;2022-12-15T15:41:46;82.90;;;34.93;;
15061;SDS011;7630;50.306;8.566;2022-12-15T15:45:48;84.70;;;37.07;;
15061;SDS011;7630;50.306;8.566;2022-12-15T15:49:53;122.70;;;56.70;;
15061;SDS011;7630;50.306;8.566;2022-12-15T15:54:03;86.07;;;39.00;;
15061;SDS011;7630;50.306;8.566;2022-12-15T15:58:11;73.00;;;34.87;;
15061;SDS011;7630;50.306;8.566;2022-12-15T16:02:13;70.43;;;43.60;;
15061;SDS011;7630;50.306;8.566;2022-12-15T16:06:16;69.53;;;32.80;;
15061;SDS011;7630;50.306;8.566;2022-12-15T16:10:19;64.27;;;37.10;;
15061;SDS011;7630;50.306;8.566;2022-12-15T16:14:21;74.27;;;34.17;;
15061;SDS011;7630;50.306;8.566;2022-12-15T16:18:23;109.57;;;49.07;;
15061;SDS011;7630;50.306;8.566;2022-12-15T16:22:24;78.55;;;51.13;;
15061;SDS011;7630;50.306;8.566;2022-12-15T16:26:30;77.23;;;33.47;;
15061;SDS011;7630;50.306;8.566;2022-12-15T16:30:29;49.47;;;32.87;;
15061;SDS011;7630;50.306;8.566;2022-12-15T16:34:31;85.92;;;48.75;;
15061;SDS011;7630;50.306;8.566;2022-12-15T16:38:32;101.23;;;40.93;;
15061;SDS011;7630;50.306;8.566;2022-12-15T16:42:33;62.17;;;33.23;;
15061;SDS011;7630;50.306;8.566;2022-12-15T16:46:35;70.27;;;33.63;;
15061;SDS011;7630;50.306;8.566;2022-12-15T16:50:37;79.00;;;31.77;;
15061;SDS011;7630;50.306;8.566;2022-12-15T16:54:39;95.67;;;35.73;;
15061;SDS011;7630;50.306;8.566;2022-12-15T16:58:42;83.27;;;35.77;;
15061;SDS011;7630;50.306;8.566;2022-12-15T17:02:45;109.00;;;39.97;;
15061;SDS011;7630;50.306;8.566;2022-12-15T17:06:46;88.83;;;40.10;;
15061;SDS011;7630;50.306;8.566;2022-12-15T17:10:48;61.87;;;32.90;;
15061;SDS011;7630;50.306;8.566;2022-12-15T17:14:51;72.87;;;36.27;;
15061;SDS011;7630;50.306;8.566;2022-12-15T17:18:52;78.70;;;41.03;;
15061;SDS011;7630;50.306;8.566;2022-12-15T17:22:55;102.17;;;50.67;;
15061;SDS011;7630;50.306;8.566;2022-12-15T17:27:01;100.80;;;56.30;;
15061;SDS011;7630;50.306;8.566;2022-12-15T17:31:03;89.63;;;46.10;;
15061;SDS011;7630;50.306;8.566;2022-12-15T17:35:05;79.50;;;39.07;;
15061;SDS011;7630;50.306;8.566;2022-12-15T17:39:08;111.75;;;57.53;;
15061;SDS011;7630;50.306;8.566;2022-12-15T17:43:14;89.80;;;40.07;;
15061;SDS011;7630;50.306;8.566;2022-12-15T17:47:16;80.20;;;34.77;;
15061;SDS011;7630;50.306;8.566;2022-12-15T17:51:18;55.80;;;32.43;;
15061;SDS011;7630;50.306;8.566;2022-12-15T17:55:21;64.23;;;32.20;;
15061;SDS011;7630;50.306;8.566;2022-12-15T17:59:24;63.77;;;34.37;;
15061;SDS011;7630;50.306;8.566;2022-12-15T18:03:26;101.47;;;40.40;;
15061;SDS011;7630;50.306;8.566;2022-12-15T18:07:27;58.20;;;36.43;;
15061;SDS011;7630;50.306;8.566;2022-12-15T18:11:28;75.80;;;39.83;;
15061;SDS011;7630;50.306;8.566;2022-12-15T18:15:30;175.53;;;45.97;;
15061;SDS011;7630;50.306;8.566;2022-12-15T18:19:32;72.40;;;40.30;;
15061;SDS011;7630;50.306;8.566;2022-12-15T18:23:35;96.10;;;42.27;;
15061;SDS011;7630;50.306;8.566;2022-12-15T18:27:37;107.37;;;44.90;;
15061;SDS011;7630;50.306;8.566;2022-12-15T18:31:40;62.10;;;37.47;;
15061;SDS011;7630;50.306;8.566;2022-12-15T18:35:44;69.37;;;41.23;;
15061;SDS011;7630;50.306;8.566;2022-12-15T18:39:48;83.03;;;40.13;;
15061;SDS011;7630;50.306;8.566;2022-12-15T18:43:51;104.58;;;48.63;;
15061;SDS011;7630;50.306;8.566;2022-12-15T18:47:56;87.67;;;37.83;;
15061;SDS011;7630;50.306;8.566;2022-12-15T18:51:58;95.17;;;37.87;;
15061;SDS011;7630;50.306;8.566;2022-12-15T18:56:04;156.70;;;46.43;;
15061;SDS011;7630;50.306;8.566;2022-12-15T19:04:20;61.17;;;38.97;;
15061;SDS011;7630;50.306;8.566;2022-12-15T19:08:24;77.70;;;48.20;;
15061;SDS011;7630;50.306;8.566;2022-12-15T19:12:28;74.10;;;46.33;;
15061;SDS011;7630;50.306;8.566;2022-12-15T19:16:32;78.97;;;46.50;;
15061;SDS011;7630;50.306;8.566;2022-12-15T19:20:55;67.27;;;49.47;;
15061;SDS011;7630;50.306;8.566;2022-12-15T19:25:19;64.77;;;42.80;;
15061;SDS011;7630;50.306;8.566;2022-12-15T19:29:26;74.40;;;45.43;;
15061;SDS011;7630;50.306;8.566;2022-12-15T19:33:29;77.77;;;57.23;;
15061;SDS011;7630;50.306;8.566;2022-12-15T19:37:32;79.73;;;48.73;;
15061;SDS011;7630;50.306;8.566;2022-12-15T19:41:38;85.07;;;44.50;;
15061;SDS011;7630;50.306;8.566;2022-12-15T19:45:44;70.13;;;44.37;;
15061;SDS011;7630;50.306;8.566;2022-12-15T19:49:46;73.52;;;48.45;;
15061;SDS011;7630;50.306;8.566;2022-12-15T19:53:48;75.00;;;47.13;;
15061;SDS011;7630;50.306;8.566;2022-12-15T19:57:50;68.20;;;44.67;;
15061;SDS011;7630;50.306;8.566;2022-12-15T20:01:51;77.43;;;47.33;;
15061;SDS011;7630;50.306;8.566;2022-12-15T20:05:53;70.97;;;46.47;;
15061;SDS011;7630;50.306;8.566;2022-12-15T20:09:57;81.23;;;50.30;;
15061;SDS011;7630;50.306;8.566;2022-12-15T20:13:59;81.37;;;50.67;;
15061;SDS011;7630;50.306;8.566;2022-12-15T20:18:04;75.87;;;47.13;;
15061;SDS011;7630;50.306;8.566;2022-12-15T20:22:11;76.40;;;46.50;;
15061;SDS011;7630;50.306;8.566;2022-12-15T20:26:21;59.43;;;40.63;;
15061;SDS011;7630;50.306;8.566;2022-12-15T20:30:31;67.13;;;40.83;;
15061;SDS011;7630;50.306;8.566;2022-12-15T20:34:33;63.83;;;40.93;;
15061;SDS011;7630;50.306;8.566;2022-12-15T20:38:34;64.20;;;42.67;;
15061;SDS011;7630;50.306;8.566;2022-12-15T20:42:36;83.93;;;54.90;;
15061;SDS011;7630;50.306;8.566;2022-12-15T20:46:40;80.30;;;53.77;;
15061;SDS011;7630;50.306;8.566;2022-12-15T20:50:45;66.40;;;46.03;;
15061;SDS011;7630;50.306;8.566;2022-12-15T20:54:48;64.70;;;45.50;;
15061;SDS011;7630;50.306;8.566;2022-12-15T20:58:51;79.70;;;54.13;;
15061;SDS011;7630;50.306;8.566;2022-12-15T21:02:54;67.83;;;44.27;;
15061;SDS011;7630;50.306;8.566;2022-12-15T21:06:56;58.47;;;35.27;;
15061;SDS011;7630;50.306;8.566;2022-12-15T21:10:59;49.03;;;30.77;;
15061;SDS011;7630;50.306;8.566;2022-12-15T21:15:04;48.13;;;33.00;;
15061;SDS011;7630;50.306;8.566;2022-12-15T21:19:19;51.70;;;33.23;;
15061;SDS011;7630;50.306;8.566;2022-12-15T21:23:23;49.90;;;35.13;;
15061;SDS011;7630;50.306;8.566;2022-12-15T21:27:27;57.70;;;40.17;;
15061;SDS011;7630;50.306;8.566;2022-12-15T21:31:29;52.87;;;40.60;;
15061;SDS011;7630;50.306;8.566;2022-12-15T21:35:32;60.67;;;41.93;;
15061;SDS011;7630;50.306;8.566;2022-12-15T21:39:35;47.03;;;27.53;;
15061;SDS011;7630;50.306;8.566;2022-12-15T21:43:36;38.00;;;26.40;;
15061;SDS011;7630;50.306;8.566;2022-12-15T21:47:38;37.37;;;24.70;;
15061;SDS011;7630;50.306;8.566;2022-12-15T21:51:59;35.43;;;24.00;;
15061;SDS011;7630;50.306;8.566;2022-12-15T21:56:13;96.47;;;82.37;;
15061;SDS011;7630;50.306;8.566;2022-12-15T22:00:16;46.87;;;33.63;;
15061;SDS011;7630;50.306;8.566;2022-12-15T22:04:20;38.20;;;27.03;;
15061;SDS011;7630;50.306;8.566;2022-12-15T22:08:24;41.43;;;29.03;;
15061;SDS011;7630;50.306;8.566;2022-12-15T22:12:25;40.37;;;26.03;;
15061;SDS011;7630;50.306;8.566;2022-12-15T22:16:26;33.90;;;22.13;;
15061;SDS011;7630;50.306;8.566;2022-12-15T22:20:29;31.30;;;23.10;;
15061;SDS011;7630;50.306;8.566;2022-12-15T22:24:31;38.00;;;25.87;;
15061;SDS011;7630;50.306;8.566;2022-12-15T22:28:32;37.43;;;23.93;;
15061;SDS011;7630;50.306;8.566;2022-12-15T22:32:34;36.67;;;26.33;;
15061;SDS011;7630;50.306;8.566;2022-12-15T22:36:35;43.37;;;28.70;;
15061;SDS011;7630;50.306;8.566;2022-12-15T22:40:36;32.20;;;22.13;;
15061;SDS011;7630;50.306;8.566;2022-12-15T22:44:37;35.43;;;24.63;;
15061;SDS011;7630;50.306;8.566;2022-12-15T22:48:39;29.60;;;21.03;;
15061;SDS011;7630;50.306;8.566;2022-12-15T22:52:42;34.17;;;21.67;;
15061;SDS011;7630;50.306;8.566;2022-12-15T22:56:46;35.50;;;20.33;;
15061;SDS011;7630;50.306;8.566;2022-12-15T23:00:59;28.73;;;17.90;;
15061;SDS011;7630;50.306;8.566;2022-12-15T23:05:00;34.37;;;20.90;;
15061;SDS011;7630;50.306;8.566;2022-12-15T23:09:02;23.30;;;18.23;;
15061;SDS011;7630;50.306;8.566;2022-12-15T23:13:04;29.27;;;19.67;;
15061;SDS011;7630;50.306;8.566;2022-12-15T23:17:06;26.97;;;19.27;;
15061;SDS011;7630;50.306;8.566;2022-12-15T23:21:08;25.93;;;18.90;;
15061;SDS011;7630;50.306;8.566;2022-12-15T23:25:09;24.43;;;17.50;;
15061;SDS011;7630;50.306;8.566;2022-12-15T23:29:11;25.50;;;16.33;;
15061;SDS011;7630;50.306;8.566;2022-12-15T23:33:13;18.17;;;15.43;;
15061;SDS011;7630;50.306;8.566;2022-12-15T23:37:15;28.37;;;18.70;;
15061;SDS011;7630;50.306;8.566;2022-12-15T23:41:16;20.83;;;16.40;;
15061;SDS011;7630;50.306;8.566;2022-12-15T23:45:18;25.03;;;16.37;;
15061;SDS011;7630;50.306;8.566;2022-12-15T23:49:19;27.70;;;18.53;;
15061;SDS011;7630;50.306;8.566;2022-12-15T23:53:20;21.93;;;17.17;;
15061;SDS011;7630;50.306;8.566;2022-12-15T23:57:22;24.67;;;18.93;;
